This is the latest recevied weather packets stored in our database for station/object LKCS. If no packets are shown the sender has not sent any weather packets the latest 10 day(s).
| Time | Temp. | Humidity | Pressure | Rain* | Wind** | Luminosity | Snow |
|---|---|---|---|---|---|---|---|
| 1787686385 | 17.22° C | 82% | 1016 hPa | - | - | - | - |
| 1787684562 | 17.22° C | 88% | 1015 hPa | - | - | - | - |
| 1787682759 | 17.22° C | 88% | 1015 hPa | - | - | - | - |
| 1787680986 | 18.89° C | 72% | 1015 hPa | - | - | - | - |
| 1787679185 | 20° C | 64% | 1014 hPa | - | - | - | - |
| 1787677360 | 20° C | 68% | 1014 hPa | - | - | - | - |
| 1787675551 | 21.11° C | 56% | 1014 hPa | - | - | - | - |
| 1787673767 | 22.22° C | 56% | 1014 hPa | - | - | - | - |
| 1787671984 | 22.22° C | 53% | 1014 hPa | - | - | - | - |
| 1787670195 | 22.22° C | 53% | 1014 hPa | - | - | - | - |
| 1787668385 | 22.22° C | 49% | 1013 hPa | - | - | - | - |
| 1787666600 | 22.22° C | 49% | 1013 hPa | - | - | - | - |
| 1787664757 | 22.22° C | 53% | 1013 hPa | - | - | - | - |
| 1787662974 | 22.78° C | 49% | 1013 hPa | - | - | - | - |
| 1787661185 | 22.78° C | 46% | 1013 hPa | - | - | - | - |
| 1787659379 | 22.78° C | 46% | 1013 hPa | - | - | - | - |
| 1787657585 | 22.22° C | 49% | 1013 hPa | - | - | - | - |
| 1787655795 | 22.22° C | 46% | 1013 hPa | - | - | - | - |
| 1787653957 | 21.11° C | 49% | 1013 hPa | - | - | - | - |
| 1787652192 | 21.11° C | 49% | 1013 hPa | - | - | - | - |
| 1787650385 | 20° C | 56% | 1013 hPa | - | - | - | - |
| 1787648596 | 18.89° C | 59% | 1013 hPa | - | - | - | - |
| 1787646783 | 17.78° C | 63% | 1013 hPa | - | - | - | - |
| 1787644994 | 17.22° C | 67% | 1013 hPa | - | - | - | - |
| 1787643185 | 16.11° C | 72% | 1013 hPa | - | - | - | - |
* Rain since midnight (hover to see other rain measurements)
** Current wind speed in m/s (hover to see current wind gust speed)